Time;durP1;ratioP1;P1;durP2;ratioP2;P2;SDS_P1;SDS_P2;PMS_P1;PMS_P2;Temp;Humidity;BMP_temperature;BMP_pressure;BME280_temperature;BME280_humidity;BME280_pressure;Samples;Min_cycle;Max_cycle;Signal;HPM_P1;HPM_P2
2021/05/26 00:00:24;;;;;;;22.22;12.78;;;;;;;17.16;61.65;100789.44;1853181;77;22139;-58
2021/05/26 00:02:57;;;;;;;17.75;12.60;;;;;;;17.08;61.89;100792.81;1820487;77;22211;-58
2021/05/26 00:05:31;;;;;;;15.63;10.88;;;;;;;17.00;62.19;100788.23;1834898;77;22175;-58
2021/05/26 00:08:34;;;;;;;12.98;10.05;;;;;;;16.95;62.29;100790.98;1706465;83;21582;-58
2021/05/26 00:11:10;;;;;;;19.12;10.55;;;;;;;16.91;62.42;100789.34;1834764;77;22600;-58
2021/05/26 00:13:45;;;;;;;11.10;9.78;;;;;;;16.87;62.42;100786.37;1829751;77;20125;-58
2021/05/26 00:16:31;;;;;;;10.13;9.08;;;;;;;16.77;62.53;100785.36;1787571;80;21688;-59
2021/05/26 00:19:07;;;;;;;8.65;7.80;;;;;;;16.72;62.79;100779.31;1824885;77;22601;-57
2021/05/26 00:21:59;;;;;;;15.83;11.18;;;;;;;16.71;62.98;100778.02;1817267;77;27926;-58
2021/05/26 00:24:33;;;;;;;8.98;7.22;;;;;;;16.74;63.08;100777.92;1834782;77;22148;-58
2021/05/26 00:27:06;;;;;;;8.03;7.25;;;;;;;16.80;63.00;100775.08;1819605;77;22146;-58
2021/05/26 00:29:53;;;;;;;7.70;6.90;;;;;;;16.71;63.27;100778.02;1758663;81;21174;-60
2021/05/26 00:32:26;;;;;;;9.00;7.45;;;;;;;16.72;63.41;100771.78;1829166;77;22191;-58
2021/05/26 00:34:59;;;;;;;9.43;7.58;;;;;;;16.65;63.86;100771.98;1834160;77;22139;-58
2021/05/26 00:37:33;;;;;;;10.00;7.85;;;;;;;16.65;63.98;100775.11;1827853;77;22186;-58
2021/05/26 00:40:08;;;;;;;9.48;7.95;;;;;;;16.73;63.94;100770.42;1834757;77;22188;-58
2021/05/26 00:42:41;;;;;;;8.58;7.78;;;;;;;16.75;63.95;100771.69;1826060;77;22178;-58
2021/05/26 00:45:17;;;;;;;8.73;7.25;;;;;;;16.75;64.01;100776.56;1814311;77;22161;-58
2021/05/26 00:47:51;;;;;;;8.38;7.25;;;;;;;16.72;64.23;100775.77;1842144;77;22181;-58
2021/05/26 00:50:26;;;;;;;8.05;7.17;;;;;;;16.71;64.23;100762.95;1853104;77;22167;-58
2021/05/26 00:53:08;;;;;;;12.90;9.90;;;;;;;16.74;64.23;100772.61;1801319;77;28502;-58
2021/05/26 00:55:55;;;;;;;8.15;7.35;;;;;;;16.70;64.18;100770.96;1761780;81;21162;-59
2021/05/26 00:58:28;;;;;;;8.78;7.35;;;;;;;16.70;64.28;100767.86;1815326;77;22190;-58
2021/05/26 01:01:02;;;;;;;7.95;7.25;;;;;;;16.70;64.42;100771.85;1828880;77;22543;-58
2021/05/26 01:03:35;;;;;;;8.25;7.08;;;;;;;16.77;64.46;100771.19;1821269;77;22197;-58
2021/05/26 01:06:08;;;;;;;9.45;7.17;;;;;;;16.77;64.56;100773.40;1834668;77;22204;-58
2021/05/26 01:08:54;;;;;;;8.45;7.60;;;;;;;16.74;64.65;100768.63;1768798;80;21160;-60
2021/05/26 01:11:27;;;;;;;10.28;8.30;;;;;;;16.80;64.77;100766.63;1822450;77;22523;-59
2021/05/26 01:14:00;;;;;;;9.75;8.75;;;;;;;16.82;64.82;100769.25;1808028;77;22178;-58
2021/05/26 01:16:33;;;;;;;12.05;9.65;;;;;;;16.86;64.91;100771.34;1853100;77;22179;-58
2021/05/26 01:19:06;;;;;;;12.60;10.85;;;;;;;16.91;64.95;100772.95;1805975;77;22190;-59
2021/05/26 01:21:54;;;;;;;16.93;11.95;;;;;;;16.92;64.98;100773.36;1738043;81;21680;-59
2021/05/26 01:24:27;;;;;;;21.73;12.82;;;;;;;16.94;65.39;100771.96;1819836;77;22600;-58
2021/05/26 01:27:00;;;;;;;18.20;12.28;;;;;;;16.94;65.66;100774.62;1834727;77;22151;-58
2021/05/26 01:29:40;;;;;;;17.00;13.55;;;;;;;16.94;65.93;100774.18;1823873;77;22538;-58
2021/05/26 01:32:25;;;;;;;17.82;13.72;;;;;;;16.93;66.05;100772.88;1791234;80;21221;-58
2021/05/26 01:34:58;;;;;;;26.27;15.00;;;;;;;16.35;68.10;100776.44;1853115;77;22179;-58
2021/05/26 01:37:32;;;;;;;20.90;14.40;;;;;;;16.23;69.11;100773.70;1846231;77;22174;-59
2021/05/26 01:40:07;;;;;;;20.82;14.98;;;;;;;16.19;69.29;100778.24;1820049;77;22193;-58
2021/05/26 01:42:40;;;;;;;42.95;23.80;;;;;;;16.18;69.79;100773.84;1810612;77;38396;-58
2021/05/26 01:45:16;;;;;;;25.48;18.07;;;;;;;16.22;69.95;100784.38;1834746;77;22171;-57
2021/05/26 01:47:50;;;;;;;38.95;26.70;;;;;;;16.24;70.25;100783.41;1804009;77;28055;-58
2021/05/26 01:50:37;;;;;;;26.37;19.32;;;;;;;16.28;70.37;100788.19;1762086;81;21720;-59
2021/05/26 01:53:10;;;;;;;25.12;18.20;;;;;;;16.33;70.71;100785.80;1819486;77;22190;-58
2021/05/26 01:55:43;;;;;;;29.72;19.10;;;;;;;16.29;71.12;100792.58;1834799;77;22136;-58
2021/05/26 01:58:32;;;;;;;25.12;19.62;;;;;;;16.29;71.03;100795.24;1699479;83;21190;-58
2021/05/26 02:01:05;;;;;;;33.50;18.87;;;;;;;16.31;71.09;100799.58;1834785;77;22176;-58
2021/05/26 02:03:42;;;;;;;26.07;18.55;;;;;;;16.32;71.25;100801.80;1813212;77;22174;-58
2021/05/26 02:06:16;;;;;;;25.43;19.25;;;;;;;16.34;71.26;100795.50;1817981;77;22175;-59
2021/05/26 02:09:04;;;;;;;27.55;19.10;;;;;;;16.34;71.24;100806.57;1734134;81;21746;-59
2021/05/26 02:14:29;;;;;;;30.50;19.27;;;;;;;16.42;71.35;100803.70;1848466;77;22174;-58
2021/05/26 02:17:02;;;;;;;27.80;20.82;;;;;;;16.49;71.26;100806.13;1824801;77;22138;-58
2021/05/26 02:19:35;;;;;;;29.75;20.23;;;;;;;16.52;71.22;100798.54;1834767;77;22179;-58
2021/05/26 02:22:08;;;;;;;28.92;19.55;;;;;;;16.56;71.19;100800.63;1850771;77;22571;-58
2021/05/26 02:24:42;;;;;;;34.03;20.75;;;;;;;16.60;71.24;100803.13;1824519;77;22136;-58
2021/05/26 02:27:15;;;;;;;33.73;20.15;;;;;;;16.64;71.16;100799.47;1831962;77;22155;-58
2021/05/26 02:29:48;;;;;;;31.35;20.02;;;;;;;16.70;71.17;100801.08;1834772;77;22176;-58
2021/05/26 02:32:34;;;;;;;29.55;19.30;;;;;;;16.64;71.33;100803.92;1785173;80;21420;-59
2021/05/26 02:35:09;;;;;;;29.80;18.67;;;;;;;16.67;71.48;100807.82;1827384;77;22167;-58
2021/05/26 02:37:42;;;;;;;30.68;16.93;;;;;;;16.70;71.55;100804.19;1813091;77;22233;-58
2021/05/26 02:40:15;;;;;;;29.80;17.10;;;;;;;16.63;71.78;100803.04;1834734;77;22572;-57
2021/05/26 02:42:48;;;;;;;21.33;15.45;;;;;;;16.67;71.90;100809.15;1820380;77;22194;-59
2021/05/26 02:45:22;;;;;;;22.02;14.45;;;;;;;16.71;71.98;100808.14;1834867;77;22151;-58
2021/05/26 02:47:55;;;;;;;19.52;12.30;;;;;;;16.74;71.96;100809.38;1841020;77;22185;-58
2021/05/26 02:50:42;;;;;;;14.20;11.35;;;;;;;16.72;72.00;100812.98;1792123;80;21146;-59
2021/05/26 02:53:15;;;;;;;15.55;11.80;;;;;;;16.76;72.07;100808.88;1801787;77;22199;-58
2021/05/26 02:55:48;;;;;;;18.55;11.78;;;;;;;16.80;72.11;100808.30;1819183;77;22186;-58
2021/05/26 02:58:21;;;;;;;14.90;10.90;;;;;;;16.80;72.02;100805.64;1834972;77;22185;-58
2021/05/26 03:01:22;;;;;;;;;;;;;;;16.77;72.16;100813.71;1781265;80;21297;-59
2021/05/26 03:03:55;;;;;;;12.07;8.78;;;;;;;16.83;72.25;100809.53;1809323;77;22171;-58
2021/05/26 03:06:29;;;;;;;15.28;9.00;;;;;;;16.85;72.23;100817.00;1853109;77;22155;-58
2021/05/26 03:09:15;;;;;;;14.70;8.85;;;;;;;16.80;72.29;100827.77;1793623;78;21121;-59
2021/05/26 03:11:54;;;;;;;16.52;7.85;;;;;;;16.87;72.46;100826.25;1835448;77;22128;-58
2021/05/26 03:14:27;;;;;;;24.77;7.85;;;;;;;16.88;72.47;100830.64;1910421;74;22160;-58
2021/05/26 03:17:01;;;;;;;10.23;7.35;;;;;;;16.87;72.52;100825.80;1834754;77;22579;-59
2021/05/26 03:19:48;;;;;;;19.05;5.90;;;;;;;16.83;72.48;100839.22;1751970;81;21142;-59
2021/05/26 03:22:22;;;;;;;18.90;5.78;;;;;;;16.84;72.57;100835.64;1830439;77;22180;-59
2021/05/26 03:24:55;;;;;;;17.02;6.25;;;;;;;16.90;72.51;100838.12;1834574;77;22148;-59
2021/05/26 03:27:38;;;;;;;11.25;6.70;;;;;;;16.84;72.75;100840.52;1827236;77;22170;-59
2021/05/26 03:30:18;;;;;;;11.60;5.72;;;;;;;16.82;72.81;100842.35;1761691;81;21575;-59
2021/05/26 03:32:51;;;;;;;9.78;5.92;;;;;;;16.86;72.83;100829.38;1841745;77;22605;-59
2021/05/26 03:35:24;;;;;;;9.38;5.35;;;;;;;16.91;72.91;100840.75;1834773;77;22183;-58
2021/05/26 03:37:57;;;;;;;13.55;5.10;;;;;;;16.96;73.03;100849.92;1814306;77;22613;-59
2021/05/26 03:40:30;;;;;;;6.78;5.37;;;;;;;17.01;72.99;100852.42;1795325;77;22173;-59
2021/05/26 03:43:04;;;;;;;7.40;4.90;;;;;;;17.02;73.05;100851.51;1812832;77;22193;-58
2021/05/26 03:45:51;;;;;;;8.15;6.30;;;;;;;17.04;73.22;100853.22;1780058;80;21087;-60
2021/05/26 03:48:24;;;;;;;9.45;6.08;;;;;;;17.19;73.22;100859.83;1802447;77;22189;-58
2021/05/26 03:50:57;;;;;;;9.58;5.78;;;;;;;17.23;73.29;100856.16;1833644;77;22555;-59
2021/05/26 03:53:37;;;;;;;6.85;5.03;;;;;;;17.31;73.38;100861.21;1805748;77;22236;-59
2021/05/26 03:56:10;;;;;;;6.15;5.22;;;;;;;17.38;73.33;100857.44;1816096;77;22563;-59
2021/05/26 03:58:58;;;;;;;6.72;4.87;;;;;;;17.41;73.10;100858.25;1759780;81;21268;-60
2021/05/26 04:01:31;;;;;;;8.65;5.70;;;;;;;17.50;72.92;100860.62;1832944;77;22186;-58
2021/05/26 04:04:05;;;;;;;7.60;5.78;;;;;;;17.52;72.95;100856.11;1805125;77;22170;-59
2021/05/26 04:06:52;;;;;;;8.40;5.75;;;;;;;17.55;73.10;100861.33;1731830;83;21119;-60
2021/05/26 04:09:25;;;;;;;7.15;5.92;;;;;;;17.67;73.04;100865.36;1819994;77;22666;-58
2021/05/26 04:11:58;;;;;;;8.25;5.55;;;;;;;17.73;73.10;100866.48;1834754;77;22156;-58
2021/05/26 04:14:31;;;;;;;7.35;5.85;;;;;;;17.80;73.27;100867.13;1814679;77;22559;-59
2021/05/26 04:17:19;;;;;;;8.28;6.15;;;;;;;17.76;73.13;100865.50;1748472;80;21528;-60
2021/05/26 04:19:53;;;;;;;14.18;6.67;;;;;;;17.77;73.12;100857.92;1834790;77;22175;-59
2021/05/26 04:22:26;;;;;;;14.68;7.00;;;;;;;17.82;73.27;100860.85;1825656;77;22202;-58
2021/05/26 04:24:59;;;;;;;17.65;8.28;;;;;;;17.87;73.28;100859.82;1853105;77;22179;-58
2021/05/26 04:27:34;;;;;;;12.85;7.78;;;;;;;17.91;73.57;100859.65;1818554;77;22187;-59
2021/05/26 04:30:23;;;;;;;14.78;7.08;;;;;;;17.93;73.66;100862.24;1758294;81;21158;-60
2021/05/26 04:32:56;;;;;;;11.15;7.55;;;;;;;17.93;73.18;100856.47;1815560;77;22158;-58
2021/05/26 04:35:29;;;;;;;14.03;8.30;;;;;;;17.95;73.28;100859.95;1820334;77;22590;-58
2021/05/26 04:38:15;;;;;;;12.23;7.87;;;;;;;18.02;73.34;100863.28;1773735;80;21183;-59
2021/05/26 04:40:48;;;;;;;14.05;9.38;;;;;;;18.20;73.12;100863.08;1819808;77;22119;-58
2021/05/26 04:43:22;;;;;;;16.45;9.85;;;;;;;18.24;73.11;100860.71;1810708;77;22174;-58
2021/05/26 04:45:56;;;;;;;17.23;9.40;;;;;;;18.27;72.68;100863.27;1844931;77;22161;-58
2021/05/26 04:48:48;;;;;;;15.65;9.75;;;;;;;18.32;72.52;100871.55;1817891;77;22269;-60
2021/05/26 04:51:29;;;;;;;17.95;10.38;;;;;;;18.33;72.73;100862.64;1821350;77;22138;-58
2021/05/26 04:54:03;;;;;;;23.95;11.78;;;;;;;18.38;73.07;100866.86;1806833;77;22218;-58
2021/05/26 04:56:36;;;;;;;15.53;9.05;;;;;;;18.49;72.42;100866.92;1834792;77;22176;-58
2021/05/26 04:59:22;;;;;;;14.73;9.65;;;;;;;18.51;72.85;100873.95;1749638;80;21142;-60
2021/05/26 05:01:55;;;;;;;21.62;9.10;;;;;;;18.63;72.25;100869.06;1834769;77;22175;-58
2021/05/26 05:04:28;;;;;;;16.87;10.53;;;;;;;18.67;72.16;100877.35;1924874;74;22112;-58
2021/05/26 05:07:02;;;;;;;11.00;8.55;;;;;;;18.72;72.00;100884.27;1831097;77;22575;-58
2021/05/26 05:09:47;;;;;;;14.65;7.90;;;;;;;18.67;71.87;100892.02;1748102;81;21135;-60
2021/05/26 05:12:20;;;;;;;13.55;7.45;;;;;;;18.82;71.87;100897.22;1824980;77;22163;-58
2021/05/26 05:14:53;;;;;;;10.15;7.75;;;;;;;18.97;72.06;100892.66;1836513;77;22143;-58
2021/05/26 05:17:27;;;;;;;10.63;7.95;;;;;;;19.15;72.03;100901.73;1820051;77;22178;-59
2021/05/26 05:20:00;;;;;;;11.63;6.65;;;;;;;19.30;71.29;100904.73;1834539;77;22183;-58
2021/05/26 05:22:33;;;;;;;8.63;6.97;;;;;;;19.41;70.96;100900.27;1827604;77;22586;-58
2021/05/26 05:25:09;;;;;;;7.45;6.20;;;;;;;19.53;70.99;100901.56;1811236;77;22606;-58
2021/05/26 05:27:49;;;;;;;7.30;5.92;;;;;;;19.63;70.14;100902.06;1810896;77;22224;-59
2021/05/26 05:30:35;;;;;;;6.90;5.95;;;;;;;19.66;69.45;100907.25;1757934;81;21800;-59
2021/05/26 05:33:08;;;;;;;7.10;5.67;;;;;;;19.74;69.17;100906.47;1808145;77;22688;-58
2021/05/26 05:35:41;;;;;;;11.45;6.42;;;;;;;19.86;69.58;100905.10;1821610;77;22139;-58
2021/05/26 05:38:14;;;;;;;11.38;7.10;;;;;;;20.02;68.99;100902.66;1797399;77;22630;-58
2021/05/26 05:40:48;;;;;;;11.08;6.40;;;;;;;20.15;68.37;100903.84;1831890;77;22175;-58
2021/05/26 05:43:34;;;;;;;13.62;6.60;;;;;;;20.30;68.81;100913.45;1753787;80;21581;-58
2021/05/26 05:46:07;;;;;;;8.38;5.67;;;;;;;20.55;68.85;100906.98;1845302;77;22562;-58
2021/05/26 05:48:40;;;;;;;8.08;4.80;;;;;;;20.83;66.21;100916.45;1791610;77;22205;-58
2021/05/26 05:51:26;;;;;;;7.53;4.10;;;;;;;20.93;66.48;100918.63;1750217;81;21170;-59
2021/05/26 05:53:59;;;;;;;6.78;4.97;;;;;;;21.70;64.29;100918.52;1818864;77;22163;-59
2021/05/26 05:56:32;;;;;;;6.70;4.17;;;;;;;22.08;62.55;100919.69;1853112;77;22175;-58
2021/05/26 05:59:17;;;;;;;5.30;3.77;;;;;;;22.25;61.76;100923.31;1795483;78;21321;-59
2021/05/26 06:01:51;;;;;;;5.08;3.75;;;;;;;22.48;60.23;100912.73;1830720;77;22186;-58
2021/05/26 06:04:24;;;;;;;6.47;4.22;;;;;;;22.60;59.89;100916.55;1820475;77;22182;-58
2021/05/26 06:07:10;;;;;;;7.05;4.40;;;;;;;22.72;59.04;100925.28;1793369;80;21573;-59
2021/05/26 06:09:43;;;;;;;4.90;4.40;;;;;;;22.88;58.10;100936.52;1834772;77;22596;-58
2021/05/26 06:12:22;;;;;;;4.97;3.67;;;;;;;23.00;58.15;100926.42;1796804;77;22505;-58
2021/05/26 06:15:09;;;;;;;4.97;3.62;;;;;;;23.12;57.67;100916.84;1761599;81;21253;-58
2021/05/26 06:17:42;;;;;;;5.08;3.65;;;;;;;23.35;56.34;100920.05;1825730;77;22649;-58
2021/05/26 06:20:16;;;;;;;5.12;3.37;;;;;;;22.76;58.70;100923.77;1834064;77;22136;-58
2021/05/26 06:23:02;;;;;;;5.47;3.50;;;;;;;22.84;58.74;100928.25;1749470;81;21173;-58
2021/05/26 06:25:35;;;;;;;3.80;2.77;;;;;;;23.23;57.44;100920.28;1804969;77;22163;-58
2021/05/26 06:28:09;;;;;;;4.45;3.12;;;;;;;23.17;56.81;100922.81;1819929;77;22190;-58
2021/05/26 06:30:58;;;;;;;3.50;3.00;;;;;;;23.25;56.42;100917.03;1758476;80;21123;-58
2021/05/26 06:33:31;;;;;;;4.83;2.80;;;;;;;23.59;56.12;100918.25;1832701;77;22664;-58
2021/05/26 06:36:05;;;;;;;6.42;3.00;;;;;;;23.79;55.20;100919.75;1834710;77;22144;-58
2021/05/26 06:38:38;;;;;;;4.25;3.05;;;;;;;23.88;55.10;100924.55;1802851;77;22180;-58
2021/05/26 06:41:23;;;;;;;3.42;2.67;;;;;;;24.00;53.86;100927.04;1683928;84;21156;-59
2021/05/26 06:43:56;;;;;;;3.55;2.70;;;;;;;24.13;53.85;100933.88;1808997;77;22590;-58
2021/05/26 06:46:29;;;;;;;3.02;2.50;;;;;;;24.23;53.26;100936.02;1834722;77;22159;-57
2021/05/26 06:49:04;;;;;;;3.08;2.45;;;;;;;24.39;52.69;100938.62;1800991;77;22201;-57
2021/05/26 06:51:37;;;;;;;3.72;2.72;;;;;;;24.57;53.24;100938.80;1834746;77;22176;-58
2021/05/26 06:54:23;;;;;;;4.17;3.15;;;;;;;24.84;52.21;100937.19;1728351;82;21585;-59
2021/05/26 06:56:56;;;;;;;3.55;2.80;;;;;;;25.12;51.48;100928.20;1817436;77;22198;-58
2021/05/26 06:59:30;;;;;;;3.60;2.60;;;;;;;25.33;50.28;100936.70;1821063;77;22132;-58
2021/05/26 07:02:16;;;;;;;2.80;2.47;;;;;;;25.38;50.25;100941.81;1793024;80;21141;-58
2021/05/26 07:04:49;;;;;;;3.77;2.62;;;;;;;25.43;49.74;100940.98;1834994;77;22152;-58
2021/05/26 07:07:22;;;;;;;3.65;2.72;;;;;;;25.36;48.87;100938.34;1819642;77;22232;-58
2021/05/26 07:09:55;;;;;;;4.60;2.80;;;;;;;25.22;49.46;100936.53;1853118;77;22171;-58
2021/05/26 07:12:50;;;;;;;4.22;2.40;;;;;;;25.20;49.80;100938.46;1815397;77;22242;-58
2021/05/26 07:15:23;;;;;;;5.03;3.02;;;;;;;25.28;49.46;100930.75;1833684;77;22150;-57
2021/05/26 07:18:09;;;;;;;4.62;3.12;;;;;;;25.73;48.31;100936.38;1732339;81;21225;-59
2021/05/26 07:20:45;;;;;;;3.62;2.85;;;;;;;25.42;49.31;100924.94;1853086;77;22179;-57
2021/05/26 07:23:18;;;;;;;4.08;2.67;;;;;;;25.60;49.08;100921.06;1815108;77;22190;-58
2021/05/26 07:26:04;;;;;;;3.50;2.72;;;;;;;25.76;47.98;100926.74;1695670;84;21137;-59
2021/05/26 07:28:37;;;;;;;3.02;2.40;;;;;;;26.63;46.18;100916.25;1831323;77;22165;-57
2021/05/26 07:31:10;;;;;;;4.10;2.58;;;;;;;26.85;46.67;100925.05;1834818;77;22155;-58
2021/05/26 07:33:43;;;;;;;2.80;2.25;;;;;;;26.83;45.73;100922.06;1793338;77;22181;-58
2021/05/26 07:36:16;;;;;;;3.37;2.72;;;;;;;26.94;45.77;100919.92;1817880;77;22170;-57
2021/05/26 07:38:50;;;;;;;4.37;2.80;;;;;;;27.11;45.49;100916.85;1823864;77;22161;-58
2021/05/26 07:41:35;;;;;;;3.72;2.37;;;;;;;27.07;45.87;100918.05;1790557;80;21135;-59
2021/05/26 07:44:09;;;;;;;4.15;2.52;;;;;;;27.09;46.01;100911.20;1824018;77;22185;-57
2021/05/26 07:46:42;;;;;;;3.85;2.22;;;;;;;27.31;45.15;100912.66;1852321;77;22139;-58
2021/05/26 07:49:15;;;;;;;3.22;2.15;;;;;;;27.41;45.01;100916.88;1804819;77;22186;-58
2021/05/26 07:52:07;;;;;;;4.30;2.60;;;;;;;27.54;44.59;100912.81;1739911;81;21174;-59
2021/05/26 07:54:40;;;;;;;3.72;2.33;;;;;;;27.75;44.83;100911.66;1853133;77;22132;-58
2021/05/26 07:57:14;;;;;;;2.72;2.08;;;;;;;27.93;43.62;100903.09;1825393;77;22143;-58
2021/05/26 07:59:48;;;;;;;2.98;2.20;;;;;;;28.07;43.60;100895.24;1831488;77;22134;-58
2021/05/26 08:02:21;;;;;;;3.40;2.37;;;;;;;28.30;42.68;100892.61;1815937;77;22186;-58
2021/05/26 08:04:54;;;;;;;3.90;2.50;;;;;;;28.31;42.44;100892.47;1833853;77;22685;-58
2021/05/26 08:07:46;;;;;;;2.72;2.40;;;;;;;28.41;42.03;100896.69;1827480;77;22264;-59
2021/05/26 08:10:19;;;;;;;2.98;2.25;;;;;;;28.51;42.02;100891.38;1816035;77;22742;-58
2021/05/26 08:13:04;;;;;;;2.58;1.95;;;;;;;28.64;41.84;100895.31;1775988;80;21146;-59
2021/05/26 08:15:37;;;;;;;2.80;2.35;;;;;;;28.75;41.50;100898.48;1825944;77;22139;-58
2021/05/26 08:18:11;;;;;;;4.53;2.27;;;;;;;28.82;41.15;100898.91;1818167;77;22486;-58
2021/05/26 08:20:46;;;;;;;4.20;2.30;;;;;;;28.46;41.90;100899.89;1834705;77;22181;-57
2021/05/26 08:23:19;;;;;;;3.90;2.08;;;;;;;28.32;42.11;100908.23;1816757;77;22607;-58
2021/05/26 08:26:07;;;;;;;5.70;3.65;;;;;;;28.34;41.67;100910.33;1761599;81;21260;-60
2021/05/26 08:28:43;;;;;;;2.75;2.20;;;;;;;28.73;40.77;100914.00;1812651;77;22640;-58
2021/05/26 08:31:16;;;;;;;3.42;2.37;;;;;;;28.52;40.61;100908.00;1837310;77;27991;-58
2021/05/26 08:33:49;;;;;;;3.35;1.95;;;;;;;28.48;41.00;100911.94;1824896;77;22595;-58
2021/05/26 08:36:35;;;;;;;2.85;1.60;;;;;;;29.04;40.22;100900.71;1762176;80;21284;-58
2021/05/26 08:39:08;;;;;;;3.58;2.10;;;;;;;29.41;38.63;100908.98;1824099;77;22170;-58
2021/05/26 08:41:45;;;;;;;2.67;1.80;;;;;;;29.49;38.41;100910.08;1834704;77;22151;-58
2021/05/26 08:44:18;;;;;;;3.00;1.80;;;;;;;29.56;38.65;100908.21;1797044;77;22598;-58
2021/05/26 08:46:52;;;;;;;2.90;1.85;;;;;;;29.62;38.88;100913.97;1834676;77;22179;-57
2021/05/26 08:49:25;;;;;;;3.62;1.82;;;;;;;29.46;38.91;100914.41;1820081;77;22221;-57
2021/05/26 08:52:02;;;;;;;2.52;2.22;;;;;;;28.90;39.26;100918.11;1834718;77;22156;-57
2021/05/26 08:54:35;;;;;;;3.65;2.27;;;;;;;29.21;38.39;100919.63;1826768;77;22115;-58
2021/05/26 08:57:20;;;;;;;3.77;2.08;;;;;;;29.22;38.60;100920.84;1772719;79;21138;-59
2021/05/26 09:00:14;;;;;;;14.75;2.27;;;;;;;28.61;39.13;100919.92;1827202;77;22229;-58
2021/05/26 09:02:47;;;;;;;2.35;1.60;;;;;;;28.25;40.76;100916.47;1818843;77;22201;-58
2021/05/26 09:05:34;;;;;;;2.50;1.70;;;;;;;28.14;40.26;100919.52;1762104;81;21182;-59
2021/05/26 09:08:25;;;;;;;4.95;2.12;;;;;;;27.87;40.58;100919.31;1817949;77;22198;-58
2021/05/26 09:11:00;;;;;;;3.67;2.10;;;;;;;28.15;40.72;100921.24;1834696;77;22658;-58
2021/05/26 09:13:37;;;;;;;3.92;2.20;;;;;;;28.19;40.65;100919.17;1795435;77;28437;-58
2021/05/26 09:16:30;;;;;;;2.95;2.00;;;;;;;27.99;41.00;100922.05;1761954;81;21613;-59
2021/05/26 09:19:05;;;;;;;2.72;1.85;;;;;;;28.13;41.37;100921.01;1807468;77;22214;-58
2021/05/26 09:21:46;;;;;;;15.72;2.87;;;;;;;28.09;40.86;100920.34;1819269;77;38663;-58
2021/05/26 09:24:34;;;;;;;2.92;1.90;;;;;;;27.97;40.54;100921.31;1728334;83;21661;-57
2021/05/26 09:27:09;;;;;;;2.75;1.90;;;;;;;27.82;40.26;100920.66;1833683;77;22152;-58
2021/05/26 09:29:46;;;;;;;3.20;2.05;;;;;;;27.72;41.11;100915.08;1819123;77;28424;-58
2021/05/26 09:32:34;;;;;;;10.93;2.60;;;;;;;27.07;41.83;100914.00;1763569;80;21154;-59
2021/05/26 09:35:08;;;;;;;3.65;1.90;;;;;;;27.58;40.89;100907.55;1834736;77;22179;-57
2021/05/26 09:37:43;;;;;;;3.75;2.08;;;;;;;27.85;41.11;100908.22;1825900;77;22194;-58
2021/05/26 09:40:16;;;;;;;3.42;1.72;;;;;;;28.04;41.16;100903.59;1828707;77;22610;-57
2021/05/26 09:42:50;;;;;;;2.20;1.60;;;;;;;27.70;41.20;100912.50;1822916;77;22155;-58
2021/05/26 09:45:26;;;;;;;3.35;2.20;;;;;;;27.93;40.94;100911.71;1821121;77;22559;-57
2021/05/26 09:47:59;;;;;;;5.60;1.65;;;;;;;28.14;40.36;100907.34;1807995;77;22626;-58
2021/05/26 09:50:45;;;;;;;12.47;2.60;;;;;;;28.14;40.51;100899.73;1753255;81;21091;-59
2021/05/26 09:53:19;;;;;;;2.37;1.90;;;;;;;28.27;40.07;100899.62;1817603;77;22618;-58
2021/05/26 09:55:52;;;;;;;3.15;1.90;;;;;;;28.47;39.51;100882.66;1834738;77;22640;-57
2021/05/26 09:58:25;;;;;;;3.40;2.30;;;;;;;28.62;39.69;100881.03;1826922;77;22174;-58
2021/05/26 10:01:10;;;;;;;5.95;1.90;;;;;;;28.84;39.36;100885.59;1756539;81;21122;-59
2021/05/26 10:03:43;;;;;;;3.22;2.20;;;;;;;29.09;38.46;100891.20;1829818;77;22216;-58
2021/05/26 10:06:16;;;;;;;3.92;1.87;;;;;;;29.29;37.77;100887.81;1853074;77;22163;-58
2021/05/26 10:09:24;;;;;;;3.30;2.70;;;;;;;29.32;38.05;100898.40;1785910;80;21199;-57
2021/05/26 10:11:57;;;;;;;7.05;2.30;;;;;;;29.23;38.01;100889.20;1830043;77;22613;-58
2021/05/26 10:14:31;;;;;;;2.62;2.17;;;;;;;29.20;38.78;100890.81;1834818;77;22148;-58
2021/05/26 10:17:04;;;;;;;4.83;2.75;;;;;;;29.38;38.67;100887.08;1821450;77;22139;-58
2021/05/26 10:19:37;;;;;;;2.83;2.30;;;;;;;29.60;37.99;100891.54;1834809;77;22156;-58
2021/05/26 10:22:24;;;;;;;4.03;2.75;;;;;;;29.61;37.31;100895.09;1728281;82;21755;-59
2021/05/26 10:24:57;;;;;;;3.40;2.62;;;;;;;29.72;37.39;100886.91;1833777;77;22559;-58
2021/05/26 10:27:40;;;;;;;28.17;5.30;;;;;;;29.80;37.06;100878.13;1828219;77;22689;-57
2021/05/26 10:30:13;;;;;;;3.55;2.20;;;;;;;29.93;37.52;100884.19;1817557;77;22140;-57
2021/05/26 10:32:56;;;;;;;3.55;2.20;;;;;;;30.11;36.52;100880.40;1810221;77;22601;-58
2021/05/26 10:35:49;;;;;;;3.30;2.22;;;;;;;30.08;36.10;100879.81;1810771;77;22142;-58
2021/05/26 10:38:22;;;;;;;8.95;3.25;;;;;;;30.03;36.68;100873.42;1801168;77;22854;-58
2021/05/26 10:41:00;;;;;;;3.47;2.40;;;;;;;30.10;36.27;100879.19;1820978;77;22185;-58
2021/05/26 10:43:56;;;;;;;4.72;2.80;;;;;;;29.97;35.89;100878.89;1763806;80;21185;-58
2021/05/26 10:46:34;;;;;;;6.67;3.02;;;;;;;29.87;35.74;100871.67;1828902;77;22135;-58
2021/05/26 10:49:10;;;;;;;2.80;2.35;;;;;;;29.79;36.00;100870.47;1805997;77;22677;-58
2021/05/26 10:51:57;;;;;;;5.53;2.77;;;;;;;29.81;35.89;100861.70;1852966;77;22143;-58
2021/05/26 10:54:48;;;;;;;5.40;2.77;;;;;;;29.76;36.23;100863.95;1767815;80;21154;-58
2021/05/26 10:57:22;;;;;;;2.92;2.30;;;;;;;29.81;35.91;100868.97;1830308;77;22576;-58
2021/05/26 11:00:24;;;;;;;4.37;2.45;;;;;;;29.85;35.55;100855.50;1853087;77;22179;-56
2021/05/26 11:06:16;;;;;;;5.25;2.05;;;;;;;29.47;35.47;100857.84;1826873;77;22131;-58
2021/05/26 11:09:03;;;;;;;2.83;2.42;;;;;;;29.36;35.72;100857.34;1770131;80;21149;-59
2021/05/26 11:11:40;;;;;;;3.10;2.30;;;;;;;29.04;36.63;100860.91;1824618;77;22653;-57
2021/05/26 11:14:18;;;;;;;2.83;2.10;;;;;;;29.24;36.21;100854.33;1804642;77;22182;-58
2021/05/26 11:17:06;;;;;;;7.00;2.72;;;;;;;29.19;36.87;100861.47;1834750;77;22598;-57
2021/05/26 11:19:40;;;;;;;3.12;2.33;;;;;;;29.36;36.35;100860.05;1828782;77;22194;-56
2021/05/26 11:22:24;;;;;;;13.50;3.00;;;;;;;29.43;36.42;100860.44;1829972;77;22161;-58
2021/05/26 11:24:57;;;;;;;2.90;2.27;;;;;;;29.44;35.46;100855.38;1805967;77;22159;-58
2021/05/26 11:27:30;;;;;;;3.85;2.75;;;;;;;29.46;36.23;100856.59;1821074;77;22167;-58
2021/05/26 11:30:19;;;;;;;3.90;2.70;;;;;;;29.67;36.00;100853.41;1761825;80;21202;-58
2021/05/26 11:33:01;;;;;;;4.65;2.30;;;;;;;29.85;36.06;100854.15;1814502;77;22185;-58
2021/05/26 11:35:48;;;;;;;2.58;2.10;;;;;;;29.89;36.05;100842.55;1834732;77;22136;-58
2021/05/26 11:38:23;;;;;;;3.67;2.20;;;;;;;30.02;35.66;100844.59;1817060;77;22163;-57
2021/05/26 11:40:56;;;;;;;2.95;2.02;;;;;;;30.23;36.16;100851.82;1853082;77;22179;-57
2021/05/26 11:43:31;;;;;;;2.37;2.00;;;;;;;30.43;35.43;100841.05;1806199;77;22174;-58
2021/05/26 11:46:07;;;;;;;3.00;2.30;;;;;;;30.48;34.96;100838.27;1829140;77;22166;-58
2021/05/26 11:48:47;;;;;;;4.28;2.08;;;;;;;30.66;34.76;100844.44;1812591;77;22182;-58
2021/05/26 11:51:24;;;;;;;4.03;2.25;;;;;;;30.74;34.70;100842.38;1830504;77;22139;-58
2021/05/26 11:54:10;;;;;;;4.50;2.37;;;;;;;30.82;34.01;100843.39;1768805;80;21145;-60
2021/05/26 11:56:43;;;;;;;3.33;2.20;;;;;;;30.88;32.93;100832.95;1834637;77;22159;-57
2021/05/26 11:59:22;;;;;;;2.87;2.17;;;;;;;30.99;32.93;100833.67;1815572;77;22169;-58
2021/05/26 12:01:56;;;;;;;3.08;2.40;;;;;;;31.13;33.05;100836.47;1811631;77;22696;-58
2021/05/26 12:04:29;;;;;;;3.55;2.30;;;;;;;31.22;33.15;100832.09;1816643;77;22681;-57
2021/05/26 12:07:03;;;;;;;4.55;2.42;;;;;;;31.35;33.52;100833.67;1804231;77;22186;-56
2021/05/26 12:09:36;;;;;;;3.45;2.20;;;;;;;31.38;33.44;100826.07;1850038;77;22178;-58
2021/05/26 12:12:16;;;;;;;6.00;2.72;;;;;;;31.51;32.88;100835.80;1851439;77;22175;-58
2021/05/26 12:15:07;;;;;;;3.30;2.17;;;;;;;31.51;32.88;100835.80;1788432;80;21598;-59